createdAt,value
2023-03-21T00:00:04.435Z,1010.04
2023-03-21T00:01:04.391Z,1010.03
2023-03-21T00:02:04.466Z,1010.04
2023-03-21T00:03:04.371Z,1010.04
2023-03-21T00:04:04.439Z,1010.01
2023-03-21T00:05:15.129Z,1010.03
2023-03-21T00:06:04.368Z,1010.01
2023-03-21T00:07:04.333Z,1010.02
2023-03-21T00:08:04.353Z,1009.99
2023-03-21T00:09:04.308Z,1010.00
2023-03-21T00:10:14.351Z,1009.97
2023-03-21T00:11:04.319Z,1010.00
2023-03-21T00:12:04.290Z,1009.97
2023-03-21T00:13:04.256Z,1009.96
2023-03-21T00:14:04.268Z,1009.96
2023-03-21T00:15:04.239Z,1009.97
2023-03-21T00:16:08.916Z,1009.93
2023-03-21T00:17:04.273Z,1009.96
2023-03-21T00:18:04.235Z,1009.93
2023-03-21T00:19:04.192Z,1009.93
2023-03-21T00:20:04.205Z,1009.90
2023-03-21T00:21:35.649Z,1009.88
2023-03-21T00:22:08.153Z,1009.87
2023-03-21T00:23:04.192Z,1009.85
2023-03-21T00:24:04.171Z,1009.83
2023-03-21T00:25:04.143Z,1009.83
2023-03-21T00:26:04.155Z,1009.81
2023-03-21T00:27:26.950Z,1009.81
2023-03-21T00:28:08.466Z,1009.78
2023-03-21T00:29:04.104Z,1009.78
2023-03-21T00:30:04.106Z,1009.78
2023-03-21T00:31:04.090Z,1009.76
2023-03-21T00:32:04.080Z,1009.74
2023-03-21T00:33:15.840Z,1009.74
2023-03-21T00:34:04.077Z,1009.72
2023-03-21T00:35:26.119Z,1009.70
2023-03-21T00:36:05.765Z,1009.71
2023-03-21T00:37:03.998Z,1009.68
2023-03-21T00:38:04.012Z,1009.68
2023-03-21T00:39:03.979Z,1009.67
2023-03-21T00:40:04.269Z,1009.68
2023-03-21T00:41:11.034Z,1009.65
2023-03-21T00:42:03.972Z,1009.66
2023-03-21T00:43:03.953Z,1009.66
2023-03-21T00:44:03.968Z,1009.66
2023-03-21T00:45:03.958Z,1009.66
2023-03-21T00:46:03.926Z,1009.65
2023-03-21T00:47:07.656Z,1009.66
2023-03-21T00:48:04.072Z,1009.65
2023-03-21T00:49:03.874Z,1009.65
2023-03-21T00:50:03.895Z,1009.65
2023-03-21T00:51:03.860Z,1009.62
2023-03-21T00:52:30.516Z,1009.62
2023-03-21T00:53:03.871Z,1009.61
2023-03-21T00:54:03.843Z,1009.60
2023-03-21T00:55:03.814Z,1009.61
2023-03-21T00:56:03.833Z,1009.58
2023-03-21T00:57:03.786Z,1009.58
2023-03-21T00:58:03.803Z,1009.56
2023-03-21T00:59:03.787Z,1009.56
2023-03-21T01:00:03.785Z,1009.54
2023-03-21T01:01:03.780Z,1009.55
2023-03-21T01:02:03.819Z,1009.54
2023-03-21T01:03:14.210Z,1009.52
2023-03-21T01:04:03.754Z,1009.51
2023-03-21T01:05:03.737Z,1009.49
2023-03-21T01:06:03.745Z,1009.49
2023-03-21T01:07:03.691Z,1009.49
2023-03-21T01:08:08.145Z,1009.49
2023-03-21T01:09:03.675Z,1009.47
2023-03-21T01:10:03.674Z,1009.47
2023-03-21T01:11:03.658Z,1009.47
2023-03-21T01:12:03.653Z,1009.48
2023-03-21T01:13:03.628Z,1009.46
2023-03-21T01:14:20.770Z,1009.46
2023-03-21T01:15:03.600Z,1009.45
2023-03-21T01:16:03.625Z,1009.43
2023-03-21T01:17:03.598Z,1009.42
2023-03-21T01:18:03.597Z,1009.42
2023-03-21T01:19:07.044Z,1009.41
2023-03-21T01:20:03.571Z,1009.41
2023-03-21T01:21:03.526Z,1009.40
2023-03-21T01:22:03.540Z,1009.39
2023-03-21T01:23:03.537Z,1009.39
2023-03-21T01:24:03.524Z,1009.37
2023-03-21T01:25:21.041Z,1009.37
2023-03-21T01:26:03.504Z,1009.37
2023-03-21T01:27:03.503Z,1009.36
2023-03-21T01:28:03.486Z,1009.36
2023-03-21T01:29:03.483Z,1009.35
2023-03-21T01:30:06.243Z,1009.34
2023-03-21T01:31:03.431Z,1009.33
2023-03-21T01:32:03.435Z,1009.32
2023-03-21T01:33:03.401Z,1009.30
2023-03-21T01:34:03.427Z,1009.30
2023-03-21T01:35:03.420Z,1009.29
2023-03-21T01:36:12.820Z,1009.29
2023-03-21T01:37:03.410Z,1009.29
2023-03-21T01:38:03.368Z,1009.28
2023-03-21T01:39:03.336Z,1009.28
2023-03-21T01:40:03.362Z,1009.27
2023-03-21T01:41:08.609Z,1009.27
2023-03-21T01:42:03.337Z,1009.27
2023-03-21T01:43:03.321Z,1009.25
2023-03-21T01:44:03.326Z,1009.24
2023-03-21T01:45:03.289Z,1009.22
2023-03-21T01:46:03.317Z,1009.20
2023-03-21T01:47:11.023Z,1009.18
2023-03-21T01:48:03.302Z,1009.18
2023-03-21T01:49:03.250Z,1009.16
2023-03-21T01:50:03.258Z,1009.15
2023-03-21T01:51:03.213Z,1009.15
2023-03-21T01:52:11.504Z,1009.16
2023-03-21T01:53:03.232Z,1009.15
2023-03-21T01:54:03.228Z,1009.15
2023-03-21T01:55:03.167Z,1009.14
2023-03-21T01:56:03.179Z,1009.14
2023-03-21T01:57:03.151Z,1009.14
2023-03-21T01:58:06.270Z,1009.14
2023-03-21T01:59:03.147Z,1009.13
2023-03-21T02:00:03.134Z,1009.12
2023-03-21T02:01:03.237Z,1009.11
2023-03-21T02:02:03.112Z,1009.10
2023-03-21T02:03:13.624Z,1009.09
2023-03-21T02:04:03.121Z,1009.08
2023-03-21T02:05:03.072Z,1009.08
2023-03-21T02:06:03.069Z,1009.06
2023-03-21T02:07:03.045Z,1009.07
2023-03-21T02:08:03.047Z,1009.07
2023-03-21T02:09:03.019Z,1009.06
2023-03-21T02:10:03.039Z,1009.05
2023-03-21T02:11:03.028Z,1009.04
2023-03-21T02:12:03.006Z,1009.01
2023-03-21T02:13:02.976Z,1009.01
2023-03-21T02:14:06.681Z,1009.02
2023-03-21T02:15:02.963Z,1008.99
2023-03-21T02:16:02.961Z,1008.98
2023-03-21T02:17:02.947Z,1008.96
2023-03-21T02:18:02.944Z,1008.95
2023-03-21T02:19:02.913Z,1008.94
2023-03-21T02:20:02.926Z,1008.92
2023-03-21T02:21:02.887Z,1008.90
2023-03-21T02:22:02.922Z,1008.90
2023-03-21T02:23:02.883Z,1008.89
2023-03-21T02:24:02.892Z,1008.89
2023-03-21T02:25:08.269Z,1008.89
2023-03-21T02:26:02.900Z,1008.87
2023-03-21T02:27:04.325Z,1008.87
2023-03-21T02:28:02.845Z,1008.85
2023-03-21T02:29:02.839Z,1008.85
2023-03-21T02:30:02.820Z,1008.84
2023-03-21T02:31:02.820Z,1008.84
2023-03-21T02:32:15.151Z,1008.82
2023-03-21T02:33:02.774Z,1008.80
2023-03-21T02:34:02.798Z,1008.80
2023-03-21T02:35:02.772Z,1008.79
2023-03-21T02:36:12.003Z,1008.79
2023-03-21T02:37:02.727Z,1008.78
2023-03-21T02:38:02.735Z,1008.78
2023-03-21T02:39:02.731Z,1008.77
2023-03-21T02:40:02.709Z,1008.76
2023-03-21T02:41:05.375Z,1008.75
2023-03-21T02:42:02.711Z,1008.74
2023-03-21T02:43:03.043Z,1008.75
2023-03-21T02:44:02.663Z,1008.75
2023-03-21T02:45:02.641Z,1008.74
2023-03-21T02:46:02.806Z,1008.73
2023-03-21T02:47:06.376Z,1008.73
2023-03-21T02:48:03.017Z,1008.72
2023-03-21T02:49:02.619Z,1008.72
2023-03-21T02:50:02.613Z,1008.73
2023-03-21T02:51:02.591Z,1008.71
2023-03-21T02:52:13.611Z,1008.73
2023-03-21T02:53:02.600Z,1008.72
2023-03-21T02:54:27.869Z,1008.70
2023-03-21T02:55:02.557Z,1008.68
2023-03-21T02:56:02.518Z,1008.68
2023-03-21T02:57:02.533Z,1008.68
2023-03-21T02:58:12.420Z,1008.70
2023-03-21T02:59:02.564Z,1008.71
2023-03-21T03:00:14.028Z,1008.71
2023-03-21T03:01:02.496Z,1008.71
2023-03-21T03:02:02.471Z,1008.72
2023-03-21T03:03:10.093Z,1008.72
2023-03-21T03:04:02.595Z,1008.71
2023-03-21T03:05:06.428Z,1008.71
2023-03-21T03:06:02.415Z,1008.71
2023-03-21T03:07:02.427Z,1008.69
2023-03-21T03:08:02.403Z,1008.68
2023-03-21T03:09:03.237Z,1008.68
2023-03-21T03:10:02.382Z,1008.68
2023-03-21T03:11:02.403Z,1008.66
2023-03-21T03:12:02.349Z,1008.66
2023-03-21T03:13:02.359Z,1008.65
2023-03-21T03:14:15.630Z,1008.65
2023-03-21T03:15:04.179Z,1008.64
2023-03-21T03:16:02.504Z,1008.63
2023-03-21T03:17:02.338Z,1008.62
2023-03-21T03:18:02.292Z,1008.62
2023-03-21T03:19:02.298Z,1008.62
2023-03-21T03:20:15.254Z,1008.62
2023-03-21T03:21:02.280Z,1008.62
2023-03-21T03:22:02.243Z,1008.63
2023-03-21T03:23:02.275Z,1008.62
2023-03-21T03:24:02.221Z,1008.62
2023-03-21T03:25:12.571Z,1008.62
2023-03-21T03:26:02.209Z,1008.62
2023-03-21T03:27:02.214Z,1008.63
2023-03-21T03:28:02.177Z,1008.63
2023-03-21T03:29:02.236Z,1008.63
2023-03-21T03:30:02.163Z,1008.63
2023-03-21T03:31:09.367Z,1008.62
2023-03-21T03:32:02.274Z,1008.60
2023-03-21T03:33:02.147Z,1008.60
2023-03-21T03:34:02.133Z,1008.60
2023-03-21T03:35:02.147Z,1008.59
2023-03-21T03:36:06.486Z,1008.58
2023-03-21T03:37:02.136Z,1008.56
2023-03-21T03:38:02.076Z,1008.55
2023-03-21T03:39:02.085Z,1008.53
2023-03-21T03:40:02.057Z,1008.53
2023-03-21T03:41:02.087Z,1008.51
2023-03-21T03:42:12.508Z,1008.50
2023-03-21T03:43:02.046Z,1008.49
2023-03-21T03:44:02.005Z,1008.49
2023-03-21T03:45:02.020Z,1008.48
2023-03-21T03:46:02.003Z,1008.47
2023-03-21T03:47:02.016Z,1008.48
2023-03-21T03:48:02.013Z,1008.49
2023-03-21T03:49:01.976Z,1008.49
2023-03-21T03:50:01.941Z,1008.49
2023-03-21T03:51:01.959Z,1008.48
2023-03-21T03:52:01.922Z,1008.47
2023-03-21T03:53:07.118Z,1008.45
2023-03-21T03:54:01.924Z,1008.46
2023-03-21T03:55:01.920Z,1008.47
2023-03-21T03:56:01.889Z,1008.46
2023-03-21T03:57:01.898Z,1008.45
2023-03-21T03:58:03.189Z,1008.44
2023-03-21T03:59:01.900Z,1008.44
2023-03-21T04:00:01.836Z,1008.43
2023-03-21T04:01:01.874Z,1008.41
2023-03-21T04:02:01.973Z,1008.43
2023-03-21T04:03:01.988Z,1008.42
2023-03-21T04:04:12.604Z,1008.42
2023-03-21T04:05:01.840Z,1008.42
2023-03-21T04:06:01.780Z,1008.42
2023-03-21T04:07:01.793Z,1008.42
2023-03-21T04:08:01.754Z,1008.43
2023-03-21T04:09:07.874Z,1008.44
2023-03-21T04:10:01.739Z,1008.43
2023-03-21T04:11:01.763Z,1008.43
2023-03-21T04:12:01.718Z,1008.42
2023-03-21T04:13:01.732Z,1008.40
2023-03-21T04:14:01.718Z,1008.40
2023-03-21T04:15:10.124Z,1008.39
2023-03-21T04:16:01.742Z,1008.39
2023-03-21T04:17:01.735Z,1008.37
2023-03-21T04:18:01.646Z,1008.37
2023-03-21T04:19:01.661Z,1008.35
2023-03-21T04:20:11.335Z,1008.37
2023-03-21T04:21:01.654Z,1008.37
2023-03-21T04:22:01.627Z,1008.37
2023-03-21T04:23:01.656Z,1008.35
2023-03-21T04:24:01.595Z,1008.34
2023-03-21T04:25:01.612Z,1008.35
2023-03-21T04:26:01.563Z,1008.33
2023-03-21T04:27:01.605Z,1008.33
2023-03-21T04:28:01.556Z,1008.31
2023-03-21T04:29:01.570Z,1008.29
2023-03-21T04:30:01.536Z,1008.29
2023-03-21T04:31:08.783Z,1008.30
2023-03-21T04:32:01.585Z,1008.27
2023-03-21T04:33:01.517Z,1008.25
2023-03-21T04:34:01.488Z,1008.25
2023-03-21T04:35:01.512Z,1008.23
2023-03-21T04:36:01.480Z,1008.23
2023-03-21T04:37:01.471Z,1008.22
2023-03-21T04:38:01.436Z,1008.21
2023-03-21T04:39:01.476Z,1008.20
2023-03-21T04:40:01.426Z,1008.18
2023-03-21T04:41:01.456Z,1008.17
2023-03-21T04:42:01.397Z,1008.16
2023-03-21T04:43:01.429Z,1008.17
2023-03-21T04:44:01.372Z,1008.15
2023-03-21T04:45:01.394Z,1008.15
2023-03-21T04:46:01.404Z,1008.14
2023-03-21T04:47:01.384Z,1008.14
2023-03-21T04:48:01.350Z,1008.11
2023-03-21T04:49:01.351Z,1008.09
2023-03-21T04:50:01.320Z,1008.10
2023-03-21T04:51:01.326Z,1008.09
2023-03-21T04:52:01.293Z,1008.07
2023-03-21T04:53:01.343Z,1008.05
2023-03-21T04:54:01.262Z,1008.03
2023-03-21T04:55:01.293Z,1008.03
2023-03-21T04:56:01.270Z,1008.02
2023-03-21T04:57:01.241Z,1008.02
2023-03-21T04:58:01.250Z,1008.03
2023-03-21T04:59:01.234Z,1008.01
2023-03-21T05:00:01.226Z,1007.99
2023-03-21T05:01:01.240Z,1007.99
2023-03-21T05:02:01.196Z,1007.98
2023-03-21T05:03:01.165Z,1007.99
2023-03-21T05:04:01.219Z,1007.97
2023-03-21T05:05:01.171Z,1007.97
2023-03-21T05:06:01.156Z,1007.97
2023-03-21T05:07:01.124Z,1007.96
2023-03-21T05:08:01.144Z,1007.97
2023-03-21T05:09:01.101Z,1007.98
2023-03-21T05:10:02.595Z,1007.99
2023-03-21T05:11:01.110Z,1008.01
2023-03-21T05:12:01.096Z,1008.01
2023-03-21T05:13:01.074Z,1008.02
2023-03-21T05:14:01.069Z,1008.03
2023-03-21T05:15:01.047Z,1008.03
2023-03-21T05:16:01.054Z,1008.03
2023-03-21T05:17:01.127Z,1008.04
2023-03-21T05:18:01.066Z,1008.03
2023-03-21T05:19:01.004Z,1008.03
2023-03-21T05:20:01.014Z,1008.03
2023-03-21T05:21:00.973Z,1008.02
2023-03-21T05:22:00.986Z,1008.03
2023-03-21T05:23:01.047Z,1008.03
2023-03-21T05:24:00.999Z,1008.04
2023-03-21T05:25:00.928Z,1008.04
2023-03-21T05:26:00.970Z,1008.04
2023-03-21T05:27:01.669Z,1008.03
2023-03-21T05:28:00.940Z,1008.03
2023-03-21T05:29:00.903Z,1008.03
2023-03-21T05:30:00.923Z,1008.03
2023-03-21T05:31:00.913Z,1008.02
2023-03-21T05:32:00.882Z,1008.01
2023-03-21T05:33:00.866Z,1007.99
2023-03-21T05:34:00.862Z,1007.97
2023-03-21T05:35:00.853Z,1007.97
2023-03-21T05:36:00.869Z,1007.97
2023-03-21T05:37:00.803Z,1007.97
2023-03-21T05:38:00.824Z,1007.97
2023-03-21T05:39:00.780Z,1007.96
2023-03-21T05:40:00.806Z,1007.96
2023-03-21T05:41:00.785Z,1007.95
2023-03-21T05:42:00.778Z,1007.94
2023-03-21T05:43:00.742Z,1007.94
2023-03-21T05:44:00.748Z,1007.94
2023-03-21T05:45:00.728Z,1007.92
2023-03-21T05:46:00.782Z,1007.92
2023-03-21T05:47:00.716Z,1007.91
2023-03-21T05:48:00.823Z,1007.92
2023-03-21T05:49:00.672Z,1007.92
2023-03-21T05:50:00.691Z,1007.92
2023-03-21T05:51:00.653Z,1007.92
2023-03-21T05:52:00.674Z,1007.93
2023-03-21T05:53:00.670Z,1007.94
2023-03-21T05:54:00.651Z,1007.94
2023-03-21T05:55:00.619Z,1007.94
2023-03-21T05:56:00.641Z,1007.95
2023-03-21T05:57:00.590Z,1007.96
2023-03-21T05:58:00.608Z,1007.97
2023-03-21T05:59:00.584Z,1007.97
2023-03-21T06:00:00.581Z,1007.97
2023-03-21T06:01:00.545Z,1007.97
2023-03-21T06:02:00.565Z,1007.97
2023-03-21T06:03:00.589Z,1007.97
2023-03-21T06:04:00.611Z,1007.97
2023-03-21T06:05:00.528Z,1007.97
2023-03-21T06:06:00.530Z,1007.97
2023-03-21T06:07:00.483Z,1007.96
2023-03-21T06:08:00.501Z,1007.96
2023-03-21T06:09:00.516Z,1007.96
2023-03-21T06:10:00.475Z,1007.97
2023-03-21T06:11:00.456Z,1007.98
2023-03-21T06:12:00.467Z,1007.98
2023-03-21T06:13:00.420Z,1007.98
2023-03-21T06:14:00.441Z,1007.98
2023-03-21T06:15:00.403Z,1007.96
2023-03-21T06:16:00.516Z,1007.98
2023-03-21T06:17:00.402Z,1007.98
2023-03-21T06:18:00.393Z,1007.98
2023-03-21T06:19:00.377Z,1007.98
2023-03-21T06:20:00.376Z,1007.99
2023-03-21T06:21:00.333Z,1007.98
2023-03-21T06:22:00.350Z,1008.00
2023-03-21T06:23:00.333Z,1007.99
2023-03-21T06:24:00.325Z,1008.00
2023-03-21T06:25:00.294Z,1008.00
2023-03-21T06:26:00.309Z,1008.01
2023-03-21T06:27:02.366Z,1008.01
2023-03-21T06:28:00.289Z,1008.02
2023-03-21T06:29:00.275Z,1008.02
2023-03-21T06:30:00.267Z,1008.04
2023-03-21T06:31:00.286Z,1008.04
2023-03-21T06:32:00.242Z,1008.05
2023-03-21T06:33:00.204Z,1008.06
2023-03-21T06:34:00.222Z,1008.07
2023-03-21T06:35:00.213Z,1008.08
2023-03-21T06:36:00.271Z,1008.07
2023-03-21T06:37:00.166Z,1008.08
2023-03-21T06:38:00.184Z,1008.09
2023-03-21T06:39:00.145Z,1008.10
2023-03-21T06:40:00.162Z,1008.10
2023-03-21T06:41:00.152Z,1008.12
2023-03-21T06:42:00.191Z,1008.13
2023-03-21T06:43:00.104Z,1008.14
2023-03-21T06:44:00.130Z,1008.13
2023-03-21T06:45:00.087Z,1008.12
2023-03-21T06:46:00.110Z,1008.14
2023-03-21T06:47:00.147Z,1008.14
2023-03-21T06:48:00.163Z,1008.15
2023-03-21T06:49:00.038Z,1008.15
2023-03-21T06:50:00.062Z,1008.15
2023-03-21T06:51:00.016Z,1008.15
2023-03-21T06:52:00.043Z,1008.15
2023-03-21T06:53:00.005Z,1008.14
2023-03-21T06:54:00.006Z,1008.15
2023-03-21T06:54:59.970Z,1008.14
2023-03-21T06:55:59.983Z,1008.13
2023-03-21T06:56:59.954Z,1008.12
2023-03-21T06:57:59.964Z,1008.12
2023-03-21T06:58:59.961Z,1008.11
2023-03-21T06:59:59.947Z,1008.08
2023-03-21T07:01:00.012Z,1008.07
2023-03-21T07:01:59.919Z,1008.06
2023-03-21T07:02:59.944Z,1008.05
2023-03-21T07:03:59.901Z,1008.04
2023-03-21T07:04:59.891Z,1008.03
2023-03-21T07:05:59.885Z,1008.03
2023-03-21T07:06:59.873Z,1008.01
2023-03-21T07:07:59.837Z,1008.01
2023-03-21T07:08:59.848Z,1008.02
2023-03-21T07:09:59.828Z,1008.01
2023-03-21T07:10:59.845Z,1008.01
2023-03-21T07:11:59.792Z,1008.02
2023-03-21T07:12:59.823Z,1008.02
2023-03-21T07:13:59.770Z,1008.02
2023-03-21T07:14:59.804Z,1008.02
2023-03-21T07:15:59.842Z,1008.01
2023-03-21T07:16:59.775Z,1008.01
2023-03-21T07:17:59.728Z,1008.03
2023-03-21T07:18:59.744Z,1008.04
2023-03-21T07:19:59.709Z,1008.06
2023-03-21T07:20:59.722Z,1008.07
2023-03-21T07:21:59.686Z,1008.08
2023-03-21T07:22:59.714Z,1008.09
2023-03-21T07:23:59.670Z,1008.10
2023-03-21T07:25:05.120Z,1008.11
2023-03-21T07:25:59.698Z,1008.11
2023-03-21T07:26:59.654Z,1008.13
2023-03-21T07:27:59.622Z,1008.13
2023-03-21T07:28:59.667Z,1008.13
2023-03-21T07:29:59.602Z,1008.12
2023-03-21T07:30:59.626Z,1008.14
2023-03-21T07:31:59.629Z,1008.14
2023-03-21T07:32:59.596Z,1008.12
2023-03-21T07:33:59.564Z,1008.13
2023-03-21T07:35:01.645Z,1008.13
2023-03-21T07:35:59.544Z,1008.13
2023-03-21T07:36:59.548Z,1008.13
2023-03-21T07:37:59.515Z,1008.13
2023-03-21T07:38:59.530Z,1008.11
2023-03-21T07:39:59.498Z,1008.13
2023-03-21T07:40:59.533Z,1008.14
2023-03-21T07:41:59.469Z,1008.14
2023-03-21T07:42:59.483Z,1008.14
2023-03-21T07:43:59.474Z,1008.16
2023-03-21T07:44:59.483Z,1008.16
2023-03-21T07:45:59.495Z,1008.17
2023-03-21T07:46:59.470Z,1008.17
2023-03-21T07:47:59.466Z,1008.17
2023-03-21T07:48:59.424Z,1008.16
2023-03-21T07:49:59.387Z,1008.16
2023-03-21T07:50:59.401Z,1008.16
2023-03-21T07:51:59.364Z,1008.16
2023-03-21T07:52:59.400Z,1008.15
2023-03-21T07:53:59.351Z,1008.16
2023-03-21T07:54:59.357Z,1008.15
2023-03-21T07:55:59.334Z,1008.15
2023-03-21T07:56:59.337Z,1008.15
2023-03-21T07:57:59.308Z,1008.15
2023-03-21T07:58:59.351Z,1008.16
2023-03-21T07:59:59.277Z,1008.16
2023-03-21T08:00:59.290Z,1008.17
2023-03-21T08:01:59.309Z,1008.18
2023-03-21T08:02:59.311Z,1008.17
2023-03-21T08:03:59.240Z,1008.17
2023-03-21T08:04:59.277Z,1008.18
2023-03-21T08:05:59.219Z,1008.18
2023-03-21T08:06:59.228Z,1008.17
2023-03-21T08:07:59.192Z,1008.17
2023-03-21T08:08:59.205Z,1008.16
2023-03-21T08:09:59.173Z,1008.16
2023-03-21T08:10:59.209Z,1008.16
2023-03-21T08:11:59.151Z,1008.17
2023-03-21T08:12:59.181Z,1008.17
2023-03-21T08:13:59.130Z,1008.18
2023-03-21T08:15:01.139Z,1008.18
2023-03-21T08:15:59.117Z,1008.17
2023-03-21T08:16:59.198Z,1008.18
2023-03-21T08:17:59.091Z,1008.18
2023-03-21T08:18:59.102Z,1008.17
2023-03-21T08:19:59.067Z,1008.17
2023-03-21T08:20:59.084Z,1008.18
2023-03-21T08:21:59.066Z,1008.17
2023-03-21T08:22:59.083Z,1008.19
2023-03-21T08:23:59.025Z,1008.18
2023-03-21T08:24:59.034Z,1008.20
2023-03-21T08:25:59.007Z,1008.19
2023-03-21T08:26:59.016Z,1008.20
2023-03-21T08:27:58.979Z,1008.19
2023-03-21T08:28:59.018Z,1008.19
2023-03-21T08:29:58.961Z,1008.18
2023-03-21T08:30:58.985Z,1008.18
2023-03-21T08:31:58.945Z,1008.17
2023-03-21T08:33:01.197Z,1008.15
2023-03-21T08:33:58.925Z,1008.15
2023-03-21T08:34:59.042Z,1008.15
2023-03-21T08:35:58.938Z,1008.16
2023-03-21T08:36:58.913Z,1008.18
2023-03-21T08:37:58.877Z,1008.19
2023-03-21T08:38:58.904Z,1008.19
2023-03-21T08:39:58.915Z,1008.22
2023-03-21T08:41:00.285Z,1008.26
2023-03-21T08:41:58.837Z,1008.25
2023-03-21T08:42:58.845Z,1008.25
2023-03-21T08:43:58.815Z,1008.28
2023-03-21T08:44:58.825Z,1008.26
2023-03-21T08:45:58.835Z,1008.29
2023-03-21T08:46:58.820Z,1008.29
2023-03-21T08:47:58.789Z,1008.30
2023-03-21T08:48:58.784Z,1008.29
2023-03-21T08:49:59.233Z,1008.28
2023-03-21T08:50:58.759Z,1008.28
2023-03-21T08:51:58.725Z,1008.28
2023-03-21T08:52:58.771Z,1008.28
2023-03-21T08:53:58.701Z,1008.30
2023-03-21T08:54:58.717Z,1008.30
2023-03-21T08:55:58.685Z,1008.30
2023-03-21T08:56:58.709Z,1008.26
2023-03-21T08:57:58.680Z,1008.27
2023-03-21T08:58:58.699Z,1008.27
2023-03-21T08:59:58.643Z,1008.25
2023-03-21T09:00:58.654Z,1008.26
2023-03-21T09:01:58.721Z,1008.25
2023-03-21T09:02:58.635Z,1008.24
2023-03-21T09:03:58.611Z,1008.21
2023-03-21T09:04:58.773Z,1008.25
2023-03-21T09:05:58.586Z,1008.26
2023-03-21T09:06:58.588Z,1008.24
2023-03-21T09:07:58.568Z,1008.24
2023-03-21T09:08:58.564Z,1008.24
2023-03-21T09:10:19.235Z,1008.23
2023-03-21T09:10:58.587Z,1008.24
2023-03-21T09:11:58.552Z,1008.19
2023-03-21T09:12:58.531Z,1008.17
2023-03-21T09:13:58.498Z,1008.15
2023-03-21T09:14:58.510Z,1008.16
2023-03-21T09:15:58.507Z,1008.13
2023-03-21T09:16:58.503Z,1008.13
2023-03-21T09:17:58.469Z,1008.12
2023-03-21T09:18:58.458Z,1008.12
2023-03-21T09:19:58.425Z,1008.12
2023-03-21T09:20:58.447Z,1008.13
2023-03-21T09:21:58.415Z,1008.11
2023-03-21T09:22:58.432Z,1008.10
2023-03-21T09:23:58.427Z,1008.05
2023-03-21T09:24:58.392Z,1008.06
2023-03-21T09:25:58.362Z,1008.04
2023-03-21T09:26:58.377Z,1008.04
2023-03-21T09:27:58.339Z,1008.03
2023-03-21T09:28:58.398Z,1008.04
2023-03-21T09:29:58.318Z,1008.05
2023-03-21T09:30:58.378Z,1008.06
2023-03-21T09:31:58.295Z,1008.06
2023-03-21T09:32:58.307Z,1008.07
2023-03-21T09:33:58.302Z,1008.07
2023-03-21T09:34:58.311Z,1008.10
2023-03-21T09:35:58.273Z,1008.10
2023-03-21T09:36:58.280Z,1008.08
2023-03-21T09:37:58.236Z,1008.08
2023-03-21T09:38:58.253Z,1008.08
2023-03-21T09:39:58.214Z,1008.08
2023-03-21T09:40:58.284Z,1008.05
2023-03-21T09:41:58.187Z,1008.04
2023-03-21T09:42:58.242Z,1007.99
2023-03-21T09:43:58.193Z,1008.00
2023-03-21T09:44:58.194Z,1008.00
2023-03-21T09:45:58.385Z,1007.99
2023-03-21T09:46:58.230Z,1007.98
2023-03-21T09:47:58.179Z,1007.98
2023-03-21T09:48:58.146Z,1007.96
2023-03-21T09:50:07.600Z,1007.97
2023-03-21T09:50:58.123Z,1007.98
2023-03-21T09:51:58.085Z,1007.95
2023-03-21T09:52:58.127Z,1007.96
2023-03-21T09:53:58.064Z,1007.96
2023-03-21T09:54:58.071Z,1007.96
2023-03-21T09:55:58.034Z,1007.98
2023-03-21T09:56:58.055Z,1007.97
2023-03-21T09:57:58.032Z,1007.97
2023-03-21T09:58:58.047Z,1007.96
2023-03-21T09:59:57.997Z,1007.95
2023-03-21T10:00:58.129Z,1007.97
2023-03-21T10:01:58.215Z,1007.98
2023-03-21T10:02:57.985Z,1007.95
2023-03-21T10:03:57.969Z,1007.95
2023-03-21T10:04:57.982Z,1007.98
2023-03-21T10:05:57.944Z,1007.96
2023-03-21T10:06:57.983Z,1007.97
2023-03-21T10:07:57.923Z,1007.98
2023-03-21T10:08:57.929Z,1007.94
2023-03-21T10:09:57.894Z,1007.96
2023-03-21T10:10:57.913Z,1007.95
2023-03-21T10:11:57.872Z,1007.94
2023-03-21T10:12:57.906Z,1007.95
2023-03-21T10:13:57.841Z,1007.94
2023-03-21T10:14:58.154Z,1007.93
2023-03-21T10:15:57.914Z,1007.93
2023-03-21T10:16:57.873Z,1007.91
2023-03-21T10:17:57.797Z,1007.88
2023-03-21T10:18:57.851Z,1007.91
2023-03-21T10:19:57.779Z,1007.90
2023-03-21T10:20:57.793Z,1007.90
2023-03-21T10:22:03.023Z,1007.88
2023-03-21T10:22:57.807Z,1007.88
2023-03-21T10:23:57.738Z,1007.88
2023-03-21T10:24:57.745Z,1007.87
2023-03-21T10:25:57.744Z,1007.88
2023-03-21T10:26:57.727Z,1007.86
2023-03-21T10:27:57.696Z,1007.85
2023-03-21T10:28:57.735Z,1007.85
2023-03-21T10:29:57.681Z,1007.83
2023-03-21T10:30:57.687Z,1007.85
2023-03-21T10:31:57.794Z,1007.86
2023-03-21T10:32:59.591Z,1007.80
2023-03-21T10:33:57.634Z,1007.85
2023-03-21T10:34:57.769Z,1007.86
2023-03-21T10:35:57.628Z,1007.84
2023-03-21T10:36:57.618Z,1007.85
2023-03-21T10:37:57.579Z,1007.85
2023-03-21T10:38:57.596Z,1007.84
2023-03-21T10:39:57.566Z,1007.82
2023-03-21T10:40:57.617Z,1007.82
2023-03-21T10:41:57.578Z,1007.82
2023-03-21T10:42:57.552Z,1007.82
2023-03-21T10:43:57.519Z,1007.79
2023-03-21T10:44:57.647Z,1007.76
2023-03-21T10:45:57.666Z,1007.78
2023-03-21T10:46:57.751Z,1007.79
2023-03-21T10:47:57.767Z,1007.78
2023-03-21T10:48:57.586Z,1007.77
2023-03-21T10:50:07.355Z,1007.76
2023-03-21T10:50:57.528Z,1007.77
2023-03-21T10:51:57.431Z,1007.75
2023-03-21T10:52:57.472Z,1007.77
2023-03-21T10:53:57.524Z,1007.75
2023-03-21T10:54:57.436Z,1007.77
2023-03-21T10:55:57.389Z,1007.76
2023-03-21T10:56:57.407Z,1007.74
2023-03-21T10:57:57.381Z,1007.74
2023-03-21T10:58:57.398Z,1007.74
2023-03-21T10:59:57.346Z,1007.73
2023-03-21T11:00:57.386Z,1007.71
2023-03-21T11:01:57.414Z,1007.68
2023-03-21T11:02:57.359Z,1007.67
2023-03-21T11:03:57.319Z,1007.67
2023-03-21T11:04:57.352Z,1007.68
2023-03-21T11:05:57.293Z,1007.67
2023-03-21T11:06:57.353Z,1007.69
2023-03-21T11:07:57.279Z,1007.65
2023-03-21T11:08:57.272Z,1007.65
2023-03-21T11:09:57.246Z,1007.69
2023-03-21T11:10:57.274Z,1007.72
2023-03-21T11:11:57.221Z,1007.67
2023-03-21T11:12:57.244Z,1007.66
2023-03-21T11:13:57.246Z,1007.63
2023-03-21T11:14:57.230Z,1007.62
2023-03-21T11:15:57.178Z,1007.58
2023-03-21T11:16:57.226Z,1007.59
2023-03-21T11:17:57.176Z,1007.57
2023-03-21T11:18:57.173Z,1007.53
2023-03-21T11:19:57.216Z,1007.51
2023-03-21T11:20:57.164Z,1007.51
2023-03-21T11:21:57.115Z,1007.50
2023-03-21T11:22:57.154Z,1007.50
2023-03-21T11:23:57.332Z,1007.45
2023-03-21T11:24:57.082Z,1007.47
2023-03-21T11:25:57.114Z,1007.43
2023-03-21T11:26:57.078Z,1007.42
2023-03-21T11:27:57.117Z,1007.40
2023-03-21T11:28:57.103Z,1007.37
2023-03-21T11:29:57.055Z,1007.38
2023-03-21T11:30:57.072Z,1007.33
2023-03-21T11:31:57.038Z,1007.31
2023-03-21T11:32:57.004Z,1007.30
2023-03-21T11:33:57.184Z,1007.30
2023-03-21T11:34:57.006Z,1007.29
2023-03-21T11:35:57.123Z,1007.29
2023-03-21T11:36:56.958Z,1007.28
2023-03-21T11:37:57.086Z,1007.28
2023-03-21T11:38:56.936Z,1007.26
2023-03-21T11:39:57.058Z,1007.23
2023-03-21T11:40:56.926Z,1007.21
2023-03-21T11:41:56.929Z,1007.22
2023-03-21T11:42:56.946Z,1007.22
2023-03-21T11:43:56.903Z,1007.22
2023-03-21T11:44:56.883Z,1007.22
2023-03-21T11:45:56.946Z,1007.20
2023-03-21T11:46:56.873Z,1007.22
2023-03-21T11:47:56.945Z,1007.17
2023-03-21T11:48:56.835Z,1007.17
2023-03-21T11:50:04.686Z,1007.15
2023-03-21T11:50:56.810Z,1007.17
2023-03-21T11:51:56.827Z,1007.13
2023-03-21T11:52:56.807Z,1007.10
2023-03-21T11:53:56.822Z,1007.08
2023-03-21T11:54:56.765Z,1007.06
2023-03-21T11:55:56.889Z,1007.05
2023-03-21T11:56:56.758Z,1007.03
2023-03-21T11:58:00.174Z,1007.01
2023-03-21T11:58:58.795Z,1007.00
2023-03-21T11:59:56.738Z,1007.00
2023-03-21T12:00:56.700Z,1006.96
2023-03-21T12:01:56.708Z,1006.96
2023-03-21T12:02:56.735Z,1006.94
2023-03-21T12:03:56.727Z,1006.93
2023-03-21T12:04:56.697Z,1006.89